• Join FlightAware (Why Join?)
  • Login
  • US Flag 
11:21AM EDT


 

Airport Tracker/Info


-or-


 

Live Flight TrackerFlight Track Log ✈ N693PD ✈ 14-May-2013 ✈ KPDK - KSSI

Flight Track Log - Related Links

Times and Time Zones

All times are in EDT time to prevent confusion due to time zone crossing. See the N693PD flight status page for this flight to view local times or setup timezone preferences in your user account.

Time Position Orientation Groundspeed Altitude Reporting Facility
EDT Latitude Longitude Course Direction KTS MPH feet Rate Location/Type
09:42AM 33.9333 -84.2833 175° South 150 173 3,100  Level Atlanta TRACON
09:43AM 33.9667 -84.2667 23° Northeast 128 147 5,100 1,260 Climbing Atlanta TRACON
09:44AM 33.9667 -84.3000 270° West 174 200 5,700 420 Climbing Atlanta TRACON
09:45AM 33.9333 -84.3500 231° Southwest 216 249 6,000 120 Climbing Atlanta TRACON
09:46AM 33.8667 -84.3667 192° South 254 292 6,000  Level Atlanta TRACON
09:47AM 33.5904 -83.9852 175° South  Level Estimated
09:47AM 33.7833 -84.3667 180° South 259 298 6,000  Level Atlanta TRACON
09:48AM 33.7167 -84.3667 180° South 262 302 6,000  Level Atlanta TRACON
09:49AM 33.6333 -84.3667 180° South 274 315 6,000  Level Atlanta TRACON
09:50AM 33.5500 -84.3667 180° South 264 304 6,000  Level Atlanta TRACON
09:51AM 33.4833 -84.3833 192° South 261 300 6,000  Level Atlanta TRACON
09:52AM 33.4167 -84.3500 157° South 263 303 6,000  Level Atlanta TRACON
09:53AM 33.3500 -84.3000 148° Southeast 264 304 6,000  Level Atlanta TRACON
09:53AM 33.3369 -84.2975 171° South 264 304 6,000 540 Level Atlanta Center
09:54AM 33.2806 -84.2550 148° Southeast 258 297 6,700 780 Climbing Atlanta Center
09:55AM 33.2283 -84.2103 144° Southeast 243 280 7,600 900 Climbing Atlanta Center
09:56AM 33.1764 -84.1606 141° Southeast 238 274 8,600 960 Climbing Atlanta Center
09:57AM 33.1200 -84.1133 145° Southeast 238 274 9,600 900 Climbing Atlanta Center
09:58AM 33.0700 -84.0611 139° Southeast 238 274 10,500 720 Climbing Atlanta Center
09:59AM 33.0197 -84.0092 139° Southeast 238 274 11,100 480 Climbing Atlanta Center
10:00AM 32.9656 -83.9497 137° Southeast 245 282 11,500 660 Climbing Atlanta Center
10:01AM 32.9175 -83.8953 136° Southeast 250 288 12,500 900 Climbing Atlanta Center
10:02AM 32.8672 -83.8361 135° Southeast 250 288 13,400 900 Climbing Atlanta Center
10:03AM 32.8172 -83.7867 140° Southeast 244 281 14,400 900 Climbing Atlanta Center
10:04AM 32.7669 -83.7325 138° Southeast 239 275 15,300 900 Climbing Atlanta Center
10:05AM 32.7186 -83.6808 138° Southeast 239 275 16,300 840 Climbing Atlanta Center
10:06AM 32.6725 -83.6194 132° Southeast 239 275 17,000 300 Climbing Atlanta Center
10:07AM 32.6244 -83.5531 131° Southeast 245 282 17,000  Level Atlanta Center
10:08AM 32.5761 -83.4817 129° Southeast 263 303 17,000  Level Atlanta Center
10:09AM 32.5256 -83.4083 129° Southeast 282 325 17,000  Level Atlanta Center
10:10AM 32.4836 -83.3394 126° Southeast 287 330 17,000  Level Atlanta Center
10:11AM 32.4331 -83.2636 128° Southeast 287 330 17,000  Level Atlanta Center
10:13AM 32.3272 -83.1039 128° Southeast 291 335 17,000  Level Jacksonville Center
10:14AM 32.2750 -83.0278 129° Southeast 291 335 17,000  Level Jacksonville Center
10:15AM 32.2269 -82.9539 128° Southeast 285 328 17,000  Level Jacksonville Center
10:16AM 32.1644 -82.8778 134° Southeast 285 328 17,000  Level Jacksonville Center
10:17AM 32.1017 -82.8189 142° Southeast 285 328 17,000  Level Jacksonville Center
10:18AM 32.0369 -82.7628 144° Southeast 291 335 17,000  Level Jacksonville Center
10:19AM 31.9744 -82.7014 140° Southeast 291 335 17,000 -360 Level Jacksonville Center
10:20AM 31.9094 -82.6381 140° Southeast 296 341 16,300 -900 Descending Jacksonville Center
10:21AM 31.8425 -82.5722 140° Southeast 301 346 15,300 -1,020 Descending Jacksonville Center
10:22AM 31.7733 -82.5064 141° Southeast 313 360 14,300 -960 Descending Jacksonville Center
10:23AM 31.7044 -82.4383 140° Southeast 318 366 13,400 -960 Descending Jacksonville Center
10:24AM 31.6394 -82.3778 142° Southeast 318 366 12,400 -1,020 Descending Jacksonville Center
10:25AM 31.5722 -82.3147 141° Southeast 318 366 11,400 -960 Descending Jacksonville Center
10:26AM 31.5031 -82.2492 141° Southeast 318 366 10,500 -900 Descending Jacksonville Center
10:27AM 31.4464 -82.1936 140° Southeast 312 359 9,600 -960 Descending Jacksonville Center
10:28AM 31.3833 -82.1358 142° Southeast 301 346 8,600 -1,020 Descending Jacksonville Center
10:29AM 31.3392 -82.0508 121° Southeast 276 318 7,600 -1,020 Descending Jacksonville Center
10:30AM 31.3156 -81.9686 109° East 271 312 6,600 -960 Descending Jacksonville Center
10:31AM 31.2961 -81.8933 107° East 271 312 5,700 -900 Descending Jacksonville Center
10:32AM 31.2706 -81.8183 112° Southeast 261 300 4,900 -960 Descending Jacksonville Center
10:33AM 31.2344 -81.7481 121° Southeast 236 272 3,800 -1,020 Descending Jacksonville Center
10:34AM 31.1983 -81.6856 124° Southeast 231 266 2,900 -900 Descending Jacksonville Center
10:35AM 31.1622 -81.6203 123° Southeast 231 266 2,000 -540 Descending Jacksonville Center
10:36AM 31.1367 -81.5722 122° Southeast 217 250 1,900 -120 Descending Jacksonville Center